Terminal Aerodrome Forecast
Issued by NWS Atlanta, GA

Home | Current Version | Previous Version | Text Only | Print | Product List | Glossary On
Versions: 1 2 3 4 5 6 7 8 9 10 11 12 13 14 15 16 17 18 19 20
000
FTUS42 KFFC 050339 AAB
TAFCSG
TAF AMD
KCSG 050339Z 0504/0524 27006KT P6SM VCSH BKN060
     FM050600 28004KT P6SM VCSH SCT060
     FM051100 30010G18KT P6SM SCT060
     FM051500 31015G25KT P6SM SCT060=

USA.gov is the U.S. government's official web portal to all federal, state and local government web resources and services.